РПИ Новосибирск

Общая информация

Новосибирский район полетной информации (РПИ) является структурным подразделением дивизиона VATRUS международной сети VATSIM.

Новосибирский РПИ осуществляет свою деятельность в воздушном пространстве над территориями 6 субъектов Российской Федерации, общая площадь территории которых составляет около 1 млн кв. км. Зона ответственности Новосибирского РПИ простирается над Республикой Алтай, Алтайским краем, Новосибирской, Кемеровской, Омской и Томской областями.

Воздушное пространство зоны ответственности Новосибирского РПИ граничит с районами организации воздушного движения Монголии, Республики Казахстан и Китайской Народной Республики. Авиационные магистрали, проходящие через зону ответственности Новосибирского РПИ, связывают Западную Европу с Юго-Восточной Азией, Северную Америку с Южно-Азиатским регионом.

Общая протяженность воздушных трасс составляет более 40 тысяч километров, в том числе более 130 международных участков с десятью воздушными коридорами на границе сопредельных государств (Казахстан, Китай, Монголия).

В состав Новосибирского РПИ входят аэродромы таких городов, как Барнаул, Горно-Алтайск, Кемерово, Новокузнецк, Новосибирск, Омск, Стрежевой, Томск.

Коды ВОРЛ (район применения ICAO EUR-G)

Новосибирск 5201-5257, 5270-5277, 5301-5317

Омск 5440-5467

Барнаул 5260-5269

Средства связи ОВД

UNNT_CTR - Новосибирск-Контроль - 127.000

Публичные ресурсы РПИ Новосибирск

ВКонтакте - http://vk.com/unnt_fir

Discord - https://discord.gg/ZSNduMxhuM

Контакты администрации РПИ Новосибирск

Fir-unnt@yandex.ru

****************************************************************************************************************

General information

The Novosibirsk Flight Information Region carries out activities in the air district on a territory of 6 subjects in the Russian Federation with a total area of 1 million square kilometers. The area of responsibility of the Novosibirsk FIR extends over the Republic of Altai, the Altai Territory, the Novosibirsk, Kemerovo, Omsk and Tomsk regions.

Air region shares borders with Mongolia, Kazakhstan and China. Airways passing through of the Novosibirsk FIR connect West Europe with South-East Asia and North America with South-Asian regions. The total length of airways is 40 thousand kilometres, including 130 in international area with 10 air corridors, crossing the borders of Kazakhstan, China, Mongolia.

There are aerodromes in Barnaul, Altai, Kemerovo, Novokuznetsk, Novosibirsk, Omsk, Strezhevoj, Tomsk.

Squawk (ICAO EUR-G):

Novosibirsk 5201-5257, 5270-5277, 5301-5317

Omsk 5440-5467

Barnaul 5260-5269

Frequency:

UNNT_CTR - Novosibirsk-Control - 127.000

Our resources:

VK - http://vk.com/unnt_fir

Discord - https://discord.gg/ZSNduMxhuM

Contact us via mail: Fir-unnt@yandex.ru

Лого Новосибирск
Руководитель РПИ

Mikhail Gogolev

Инструкторы РПИ
Aleksey Nevzorov (Instructor)
Artem Smychkov * (Controller)
Mikhail Gogolev (Instructor)
Sergey Korolev (Instructor)
Входит в состав
ЗЦ Новосибирск

Диспетчеры РПИ

Диспетчер Рейтинг Допуски *
Aleksey Nevzorov Instructor UNNT_CTR
Alexander Shchelganov Senior Student UNNT_CTR *, UNNT_APP
Artem Smychkov Controller UNNT_CTR
Kirill Shabunin Senior Controller UNNT_CTR
Mikhail Gogolev Instructor UNNT_CTR
Alexey Ginko Student UNNT_GND
Anton Gluchenkov Student 2 UNNT_TWR
Arseniy Kucheev Student 2 UNEE_TWR, UNNT_TWR*, UNOO_GND
Artem Glinchikov Student UNNT_GND
Artem Tsendrovsky Student 2 UNNT_R_APP*, UNNT_TWR, UNOO_TWR
Artem Yusko Student UNNT_GND
Boris Yakunin Student UNNT_TWR*, UNNT_GND
Danila Lezhnin Student UNNT_GND
Darya Krauz Student UNNT_GND
Kirill Ivanov Student UNNT_GND, UNNT_TWR*, UNOO_GND
Konstantin Bednov Student 2 UNNT_TWR
Mikhail Pompushko Student 2 UNNT_TWR, UNNT_GND
Sergey Arkasov Student UNNT_GND, UNNT_TWR*
Sergey Belkin Student UNNT_GND, UNOO_GND
Stas Butrim Student UNNT_GND
Stepan Seleznev Student 2 UNNT_GND
Tigran Areian Senior Student UNNT_APP, UNOO_APP
Timofei Degtyar Student 2 UNNT_TWR, UNNT_R_APP*, UNOO_TWR
Timur Samarin Senior Student UNNT_TWR
Yulia Khudic Student UNNT_GND

Аэропорты РПИ

ICAO Город Название Погода
UNBB Барнаул Барнаул UNBB 161830Z 21007MPS CAVOK 03/M00 Q1009 R24/950330 NOSIG RMK QFE735
UNBG Горно-Алтайск Горно-Алтайск
UNEE Кемерово Кемерово UNEE 161830Z 12006MPS 4600 -FZRA -SHSN BKN034CB M01/M02 Q1008 R05/820545 NOSIG RMK QFE734
UNWW Новокузнецк Новокузнецк UNWW 161830Z 15002MPS 7000 -SN BKN037 M01/M03 Q1012 R19/390137 NOSIG RMK QFE732
UNNT Новосибирск Новосибирск UNNT 161830Z 19006MPS 9999 OVC018 03/00 Q1006 R25/390138 R16/////// NOSIG RMK QFE744/0993
UNOO Омск Омск UNOO 161830Z 22012MPS 5000 BLSN BKN015 M03/M06 Q0997 R25/390040 NOSIG RMK QFE739
UNSS Стрежевой Стрежевой
UNTT Томск Томск UNTT 161830Z 13004MPS 7000 -SHSN BKN008CB M03/M04 Q1007 R21/////// NOSIG RMK QFE740